Time;durP1;ratioP1;P1;durP2;ratioP2;P2;SDS_P1;SDS_P2;PMS_P1;PMS_P2;Temp;Humidity;BMP_temperature;BMP_pressure;BME280_temperature;BME280_humidity;BME280_pressure;Samples;Min_cycle;Max_cycle;Signal;HPM_P1;HPM_P2
2023/09/15 00:01:35;;;;;;;;;;;;;;;29.10;37.58;100817.75;5071606;28;1166;-30
2023/09/15 00:04:04;;;;;;;;;;;;;;;29.07;37.73;100819.00;5078514;28;1154;-29
2023/09/15 00:06:30;;;;;;;;;;;;;;;29.16;37.53;100816.97;5078658;28;1125;-29
2023/09/15 00:08:57;;;;;;;;;;;;;;;29.10;37.76;100817.75;5078504;28;1398;-30
2023/09/15 00:11:22;;;;;;;;;;;;;;;29.13;37.59;100821.97;5077201;28;1039;-32
2023/09/15 00:13:48;;;;;;;;;;;;;;;29.01;37.93;100819.75;5066327;28;888;-30
2023/09/15 00:16:13;;;;;;;;;;;;;;;29.04;37.61;100823.94;5078606;28;1245;-28
2023/09/15 00:18:39;;;;;;;;;;;;;;;29.08;37.72;100822.50;5079021;28;1975;-31
2023/09/15 00:21:05;;;;;;;;;;;;;;;29.05;37.51;100818.34;5078288;28;1121;-30
2023/09/15 00:23:31;;;;;;;;;;;;;;;29.02;37.77;100820.59;5071590;28;1003;-32
2023/09/15 00:25:59;;;;;;;;;;;;;;;29.12;37.38;100814.84;5066343;28;1067;-30
2023/09/15 00:28:24;;;;;;;;;;;;;;;29.07;37.71;100818.16;5078409;28;1074;-29
2023/09/15 00:30:50;;;;;;;;;;;;;;;29.01;37.91;100818.94;5077919;28;1166;-31
2023/09/15 00:33:16;;;;;;;;;;;;;;;29.02;37.70;100818.72;5060145;28;1078;-28
2023/09/15 00:35:41;;;;;;;;;;;;;;;28.96;37.72;100824.91;5077984;28;1062;-30
2023/09/15 00:38:07;;;;;;;;;;;;;;;28.98;38.07;100822.03;5047918;28;1914;-28
2023/09/15 00:40:32;;;;;;;;;;;;;;;29.05;37.89;100826.47;5060147;28;1074;-28
2023/09/15 00:42:58;;;;;;;;;;;;;;;29.05;37.69;100825.63;5077465;28;1213;-31
2023/09/15 00:45:23;;;;;;;;;;;;;;;28.99;37.83;100820.97;5077983;28;1150;-33
2023/09/15 00:47:53;;;;;;;;;;;;;;;29.01;37.61;100814.34;5078181;28;1043;-31
2023/09/15 00:50:21;;;;;;;;;;;;;;;28.98;37.72;100817.44;5059665;28;1150;-30
2023/09/15 00:52:49;;;;;;;;;;;;;;;29.03;37.91;100819.59;5077816;28;1106;-32
2023/09/15 00:55:15;;;;;;;;;;;;;;;28.92;37.80;100813.63;5077935;28;1071;-28
2023/09/15 00:57:41;;;;;;;;;;;;;;;29.03;37.56;100812.28;5039861;28;1906;-30
2023/09/15 01:00:12;;;;;;;;;;;;;;;28.98;37.79;100811.19;5072451;28;1193;-32
2023/09/15 01:02:39;;;;;;;;;;;;;;;28.96;37.81;100814.06;5077591;28;875;-29
2023/09/15 01:05:07;;;;;;;;;;;;;;;29.06;37.62;100811.88;5057286;28;1286;-30
2023/09/15 01:07:33;;;;;;;;;;;;;;;29.03;37.38;100812.28;5039635;28;1130;-31
2023/09/15 01:09:58;;;;;;;;;;;;;;;28.97;37.98;100813.06;5055710;28;1127;-28
2023/09/15 01:12:24;;;;;;;;;;;;;;;28.93;37.98;100807.16;5059295;28;1314;-30
2023/09/15 01:14:49;;;;;;;;;;;;;;;29.01;37.76;100805.38;5077139;28;1078;-28
2023/09/15 01:17:25;;;;;;;;;;;;;;;28.97;38.00;100810.34;5068382;28;1906;-31
2023/09/15 01:19:54;;;;;;;;;;;;;;;28.99;37.76;100802.88;5053193;28;1051;-29
2023/09/15 01:22:32;;;;;;;;;;;;;;;28.94;37.85;100805.28;5050676;28;1143;-33
2023/09/15 01:24:57;;;;;;;;;;;;;;;28.90;37.85;100804.00;5058124;28;1098;-32
2023/09/15 01:27:26;;;;;;;;;;;;;;;28.87;38.04;100805.22;5073003;28;905;-28
2023/09/15 01:29:52;;;;;;;;;;;;;;;28.79;38.23;100802.66;5077154;28;1118;-30
2023/09/15 01:32:18;;;;;;;;;;;;;;;28.95;38.08;100810.50;5045969;28;1452;-33
2023/09/15 01:34:48;;;;;;;;;;;;;;;29.01;38.10;100795.38;5058947;28;1194;-29
2023/09/15 01:37:14;;;;;;;;;;;;;;;28.93;38.25;100795.47;5058819;28;1905;-31
2023/09/15 01:39:41;;;;;;;;;;;;;;;29.04;37.91;100802.28;5076809;28;1074;-32
2023/09/15 01:42:07;;;;;;;;;;;;;;;28.96;38.05;100798.63;5077493;28;1086;-28
2023/09/15 01:44:33;;;;;;;;;;;;;;;29.00;37.98;100806.41;5076862;28;1196;-28
2023/09/15 01:46:59;;;;;;;;;;;;;;;28.95;37.88;100801.53;5076917;28;1035;-29
2023/09/15 01:49:25;;;;;;;;;;;;;;;28.88;38.06;100801.47;5058680;28;1015;-32
2023/09/15 01:51:50;;;;;;;;;;;;;;;28.89;38.11;100810.44;5058493;28;862;-34
2023/09/15 01:54:16;;;;;;;;;;;;;;;28.88;37.85;100797.97;5058936;28;1275;-29
2023/09/15 01:56:42;;;;;;;;;;;;;;;28.85;38.32;100802.72;5041724;28;1072;-35
2023/09/15 01:59:08;;;;;;;;;;;;;;;28.79;38.23;100805.34;5058354;28;1922;-32
2023/09/15 02:01:33;;;;;;;;;;;;;;;28.82;38.33;100805.81;5058400;28;1153;-31
2023/09/15 02:03:59;;;;;;;;;;;;;;;28.89;38.14;100807.75;5076209;28;1265;-29
2023/09/15 02:06:24;;;;;;;;;;;;;;;28.92;37.95;100813.63;5077024;28;1111;-29
2023/09/15 02:08:50;;;;;;;;;;;;;;;28.94;37.87;100814.25;5076313;28;1015;-29
2023/09/15 02:11:15;;;;;;;;;;;;;;;28.96;37.78;100812.19;5076555;28;1126;-31
2023/09/15 02:13:41;;;;;;;;;;;;;;;28.98;37.67;100816.63;5058432;28;1384;-28
2023/09/15 02:16:07;;;;;;;;;;;;;;;28.98;37.90;100819.31;5058156;28;1131;-32
2023/09/15 02:18:32;;;;;;;;;;;;;;;29.02;37.80;100816.03;5076652;28;1983;-31
2023/09/15 02:21:00;;;;;;;;;;;;;;;29.02;37.58;100812.47;5058604;28;1291;-28
2023/09/15 02:23:25;;;;;;;;;;;;;;;28.98;37.82;100812.00;5076773;28;1083;-31
2023/09/15 02:25:51;;;;;;;;;;;;;;;28.94;37.88;100805.28;5062765;28;1136;-29
2023/09/15 02:28:18;;;;;;;;;;;;;;;29.08;37.60;100808.97;5069242;28;880;-29
2023/09/15 02:30:44;;;;;;;;;;;;;;;28.95;37.70;100804.25;5056330;28;1099;-28
2023/09/15 02:33:10;;;;;;;;;;;;;;;28.83;38.07;100810.19;5062968;28;1020;-28
2023/09/15 02:35:35;;;;;;;;;;;;;;;28.99;37.92;100802.88;5044877;28;1127;-33
2023/09/15 02:38:01;;;;;;;;;;;;;;;29.02;37.69;100807.06;5076135;28;1964;-30
2023/09/15 02:40:28;;;;;;;;;;;;;;;29.00;37.79;100803.69;5076704;28;1157;-28
2023/09/15 02:42:53;;;;;;;;;;;;;;;29.03;37.71;100806.03;5057998;28;1157;-33
2023/09/15 02:45:19;;;;;;;;;;;;;;;29.00;38.00;100809.97;5076358;28;1055;-29
2023/09/15 02:47:45;;;;;;;;;;;;;;;28.89;38.08;100805.03;5045092;28;1186;-29
2023/09/15 02:50:11;;;;;;;;;;;;;;;28.91;37.81;100817.34;5046648;28;1320;-29
2023/09/15 02:52:36;;;;;;;;;;;;;;;28.95;37.97;100817.78;5058366;28;1457;-29
2023/09/15 02:55:04;;;;;;;;;;;;;;;28.98;37.76;100813.91;5057731;28;1381;-31
2023/09/15 02:57:30;;;;;;;;;;;;;;;28.94;37.71;100808.84;5038451;28;1902;-29
2023/09/15 02:59:55;;;;;;;;;;;;;;;28.99;37.55;100815.56;5050912;28;1129;-30
2023/09/15 03:02:21;;;;;;;;;;;;;;;28.82;37.87;100813.09;5064905;28;1187;-29
2023/09/15 03:04:47;;;;;;;;;;;;;;;28.73;37.87;100813.22;5061838;28;1091;-29
2023/09/15 03:07:13;;;;;;;;;;;;;;;28.88;37.87;100820.44;5043007;28;1075;-32
2023/09/15 03:09:38;;;;;;;;;;;;;;;28.62;38.38;100818.28;5071998;28;1142;-28
2023/09/15 03:12:04;;;;;;;;;;;;;;;28.77;37.66;100813.69;5078875;28;1095;-32
2023/09/15 03:14:30;;;;;;;;;;;;;;;28.64;36.92;100814.38;5061246;28;1261;-31
2023/09/15 03:16:55;;;;;;;;;;;;;;;28.62;36.96;100821.84;5060710;28;1283;-30
2023/09/15 03:19:22;;;;;;;;;;;;;;;28.83;37.14;100822.88;5061215;28;1911;-31
2023/09/15 03:21:47;;;;;;;;;;;;;;;28.80;37.70;100828.69;5079068;28;1019;-32
2023/09/15 03:24:13;;;;;;;;;;;;;;;28.39;38.54;100827.41;5061419;28;2356;-31
2023/09/15 03:26:40;;;;;;;;;;;;;;;26.83;42.14;100828.53;5060790;28;1176;-33
2023/09/15 03:29:06;;;;;;;;;;;;;;;26.57;43.69;100831.56;5061198;28;1238;-27
2023/09/15 03:31:32;;;;;;;;;;;;;;;26.43;43.57;100830.44;5055123;28;1155;-29
2023/09/15 03:33:57;;;;;;;;;;;;;;;25.59;45.41;100829.84;5053763;28;1116;-33
2023/09/15 03:36:25;;;;;;;;;;;;;;;25.69;45.08;100835.91;5060956;28;1323;-29
2023/09/15 03:38:51;;;;;;;;;;;;;;;25.17;46.29;100846.00;5060609;28;1965;-32
2023/09/15 03:41:17;;;;;;;;;;;;;;;25.01;46.62;100838.75;5060742;28;1249;-32
2023/09/15 03:43:42;;;;;;;;;;;;;;;26.03;44.27;100836.66;5060637;28;1399;-29
2023/09/15 03:46:08;;;;;;;;;;;;;;;25.91;44.88;100853.19;5078610;28;1225;-28
2023/09/15 03:48:33;;;;;;;;;;;;;;;25.83;45.00;100852.38;5061257;28;1170;-29
2023/09/15 03:50:59;;;;;;;;;;;;;;;25.51;45.88;100857.59;5060149;28;1123;-27
2023/09/15 03:53:25;;;;;;;;;;;;;;;25.21;46.30;100868.88;5056527;28;2517;-27
2023/09/15 03:55:51;;;;;;;;;;;;;;;25.92;45.71;100859.44;5078358;28;1211;-30
2023/09/15 03:58:17;;;;;;;;;;;;;;;26.65;43.35;100853.09;5078096;28;1946;-26
2023/09/15 04:00:43;;;;;;;;;;;;;;;27.17;42.35;100858.03;5060141;28;1297;-29
2023/09/15 04:03:09;;;;;;;;;;;;;;;26.94;42.57;100861.53;5077462;28;1054;-27
2023/09/15 04:05:34;;;;;;;;;;;;;;;26.03;44.82;100860.91;5060551;28;1319;-26
2023/09/15 04:08:01;;;;;;;;;;;;;;;25.70;45.22;100875.31;5060594;28;1122;-27
2023/09/15 04:10:26;;;;;;;;;;;;;;;25.97;44.70;100881.31;5060479;28;1222;-26
2023/09/15 04:12:52;;;;;;;;;;;;;;;26.34;43.84;100870.94;5059191;28;1216;-27
2023/09/15 04:15:17;;;;;;;;;;;;;;;26.23;43.71;100879.38;5077937;28;1164;-30
2023/09/15 04:17:43;;;;;;;;;;;;;;;26.39;43.46;100881.22;5077569;28;1975;-28
2023/09/15 04:20:09;;;;;;;;;;;;;;;26.47;44.17;100885.72;5077877;28;1054;-26
2023/09/15 04:22:39;;;;;;;;;;;;;;;26.63;43.45;100891.06;5060350;28;1115;-27
2023/09/15 04:25:05;;;;;;;;;;;;;;;26.69;43.31;100886.81;5048577;28;1849;-29
2023/09/15 04:27:34;;;;;;;;;;;;;;;26.63;44.07;100892.91;5059601;28;1303;-29
2023/09/15 04:30:00;;;;;;;;;;;;;;;26.47;44.29;100891.97;5046582;28;1176;-24
2023/09/15 04:32:34;;;;;;;;;;;;;;;26.75;43.70;100887.94;5058815;28;1120;-26
2023/09/15 04:35:00;;;;;;;;;;;;;;;26.99;42.85;100888.84;5047520;28;1259;-27
2023/09/15 04:37:25;;;;;;;;;;;;;;;26.74;44.58;100892.50;5059742;28;1894;-29
2023/09/15 04:39:51;;;;;;;;;;;;;;;26.90;43.65;100893.44;5059404;28;848;-26
2023/09/15 04:42:16;;;;;;;;;;;;;;;26.85;44.74;100895.81;5059683;28;1210;-27
2023/09/15 04:44:42;;;;;;;;;;;;;;;26.59;45.47;100899.69;5059665;28;1244;-28
2023/09/15 04:47:09;;;;;;;;;;;;;;;26.26;46.63;100901.44;5059710;28;1151;-26
2023/09/15 04:49:35;;;;;;;;;;;;;;;26.61;45.06;100903.06;5059850;28;1327;-27
2023/09/15 04:52:01;;;;;;;;;;;;;;;26.26;46.40;100909.53;5059364;28;1508;-27
2023/09/15 04:54:28;;;;;;;;;;;;;;;26.22;46.71;100912.75;5055007;28;2531;-27
2023/09/15 04:56:54;;;;;;;;;;;;;;;26.09;46.94;100916.00;5059542;28;1292;-32
2023/09/15 04:59:20;;;;;;;;;;;;;;;25.79;48.98;100919.25;5050374;28;1979;-28
2023/09/15 05:01:49;;;;;;;;;;;;;;;26.72;44.75;100909.91;5055085;28;1282;-31
2023/09/15 05:04:15;;;;;;;;;;;;;;;27.47;41.37;100918.41;5077230;28;907;-29
2023/09/15 05:06:41;;;;;;;;;;;;;;;27.79;40.81;100923.72;5059277;28;1371;-28
2023/09/15 05:09:09;;;;;;;;;;;;;;;27.95;40.50;100924.56;5077621;28;1201;-28
2023/09/15 05:11:35;;;;;;;;;;;;;;;28.02;40.72;100925.53;5058863;28;1237;-30
2023/09/15 05:14:01;;;;;;;;;;;;;;;27.51;40.92;100935.91;5059039;28;1218;-30
2023/09/15 05:16:27;;;;;;;;;;;;;;;27.81;40.29;100928.94;5058719;28;1242;-32
2023/09/15 05:18:52;;;;;;;;;;;;;;;27.25;39.75;100926.31;5058723;28;1975;-29
2023/09/15 05:21:18;;;;;;;;;;;;;;;27.76;38.55;100926.78;5056587;28;1134;-32
2023/09/15 05:23:44;;;;;;;;;;;;;;;27.86;39.29;100932.75;5041197;28;1868;-31
2023/09/15 05:26:10;;;;;;;;;;;;;;;28.02;40.05;100930.09;5055062;28;1147;-31
2023/09/15 05:28:35;;;;;;;;;;;;;;;28.16;39.95;100940.06;5058479;28;1208;-29
2023/09/15 05:31:01;;;;;;;;;;;;;;;28.19;40.36;100949.69;5076889;28;1129;-29
2023/09/15 05:33:30;;;;;;;;;;;;;;;28.13;40.20;100951.25;5058662;28;1291;-31
2023/09/15 05:35:55;;;;;;;;;;;;;;;28.07;40.02;100942.03;5060389;28;1145;-27
2023/09/15 05:38:24;;;;;;;;;;;;;;;28.21;40.14;100950.34;5039068;28;1963;-31
2023/09/15 05:40:50;;;;;;;;;;;;;;;28.20;39.97;100962.19;5072022;28;1075;-30
2023/09/15 05:43:18;;;;;;;;;;;;;;;28.22;40.38;100963.69;5059002;28;1137;-30
2023/09/15 05:45:47;;;;;;;;;;;;;;;28.37;40.13;100962.88;5063584;28;1121;-32
2023/09/15 05:48:22;;;;;;;;;;;;;;;28.26;40.73;100957.91;5059225;28;1052;-30
2023/09/15 05:50:48;;;;;;;;;;;;;;;28.04;40.78;100961.34;5063127;28;1022;-28
2023/09/15 05:53:13;;;;;;;;;;;;;;;28.07;40.65;100957.41;5076656;28;903;-29
2023/09/15 05:55:39;;;;;;;;;;;;;;;28.25;40.42;100962.47;5054691;28;1102;-35
2023/09/15 05:58:04;;;;;;;;;;;;;;;28.34;40.38;100966.78;5067791;28;1911;-27
2023/09/15 06:00:30;;;;;;;;;;;;;;;28.28;40.20;100956.69;5062846;28;1121;-29
2023/09/15 06:02:55;;;;;;;;;;;;;;;28.34;40.23;100966.78;5076320;28;1190;-28
2023/09/15 06:05:24;;;;;;;;;;;;;;;28.01;41.01;100966.28;5072158;28;1010;-28
2023/09/15 06:07:50;;;;;;;;;;;;;;;27.89;41.33;100965.88;5056675;28;1051;-34
2023/09/15 06:10:15;;;;;;;;;;;;;;;26.71;37.09;100964.91;5060541;28;1043;-30
2023/09/15 06:12:41;;;;;;;;;;;;;;;26.70;35.89;100958.66;5076000;28;1059;-31
2023/09/15 06:15:07;;;;;;;;;;;;;;;26.34;35.42;100968.03;5076584;28;1150;-32
2023/09/15 06:17:33;;;;;;;;;;;;;;;25.73;34.61;100971.09;5076074;28;1909;-31
2023/09/15 06:19:59;;;;;;;;;;;;;;;26.24;33.86;100975.47;5058386;28;1145;-28
2023/09/15 06:22:26;;;;;;;;;;;;;;;27.23;35.21;100974.25;5067652;28;1123;-28
2023/09/15 06:24:51;;;;;;;;;;;;;;;27.68;35.91;100975.47;5062701;28;1023;-28
2023/09/15 06:27:17;;;;;;;;;;;;;;;27.97;36.62;100977.47;5076924;28;1186;-28
2023/09/15 06:29:43;;;;;;;;;;;;;;;28.15;36.34;100980.81;5076009;28;1055;-30
2023/09/15 06:32:08;;;;;;;;;;;;;;;28.21;36.60;100982.81;5076026;28;1110;-31
2023/09/15 06:34:34;;;;;;;;;;;;;;;28.21;36.54;100977.41;5062753;28;1101;-30
2023/09/15 06:37:01;;;;;;;;;;;;;;;28.06;36.80;100978.19;5075536;28;1062;-27
2023/09/15 06:39:27;;;;;;;;;;;;;;;28.32;36.73;100979.66;5071650;28;1914;-27
2023/09/15 06:41:53;;;;;;;;;;;;;;;28.27;36.92;100973.94;5061867;28;889;-30
2023/09/15 06:44:21;;;;;;;;;;;;;;;28.51;36.37;100982.81;5055890;28;1309;-31
2023/09/15 06:46:47;;;;;;;;;;;;;;;28.54;36.77;100982.47;5076455;28;1199;-27
2023/09/15 06:49:13;;;;;;;;;;;;;;;28.28;36.87;100982.91;5075779;28;1121;-32
2023/09/15 06:51:38;;;;;;;;;;;;;;;28.21;36.61;100980.94;5065105;28;1086;-28
2023/09/15 06:54:04;;;;;;;;;;;;;;;28.52;36.38;100989.09;5073682;28;1172;-27
2023/09/15 06:56:29;;;;;;;;;;;;;;;28.47;36.93;100986.94;5076209;28;1142;-30
2023/09/15 06:58:54;;;;;;;;;;;;;;;28.10;37.96;100989.50;5075963;28;1914;-32
2023/09/15 07:01:20;;;;;;;;;;;;;;;28.40;36.88;100989.56;5075675;28;1367;-29
2023/09/15 07:03:45;;;;;;;;;;;;;;;28.41;36.48;100998.53;5062356;28;1047;-28
2023/09/15 07:06:13;;;;;;;;;;;;;;;28.51;36.12;100993.66;5075797;28;848;-26
2023/09/15 07:08:39;;;;;;;;;;;;;;;28.68;36.14;101004.28;5075867;28;1015;-30
2023/09/15 07:11:04;;;;;;;;;;;;;;;28.16;36.52;101007.69;5075993;28;1081;-29
2023/09/15 07:13:30;;;;;;;;;;;;;;;28.46;35.61;101007.75;5070956;28;1170;-26
2023/09/15 07:15:55;;;;;;;;;;;;;;;27.94;36.36;101009.41;5067051;28;1039;-30
2023/09/15 07:18:21;;;;;;;;;;;;;;;28.23;35.76;101007.78;5071293;28;1902;-26
2023/09/15 07:20:46;;;;;;;;;;;;;;;28.46;35.80;101009.63;5067023;28;1125;-28
2023/09/15 07:23:12;;;;;;;;;;;;;;;28.56;35.24;101007.47;5075906;28;1146;-28
2023/09/15 07:25:37;;;;;;;;;;;;;;;28.51;35.35;101004.47;5075520;28;1140;-27
2023/09/15 07:28:03;;;;;;;;;;;;;;;28.44;36.50;101011.69;5075929;28;1158;-30
2023/09/15 07:30:29;;;;;;;;;;;;;;;28.61;36.01;101012.34;5075290;28;925;-29
2023/09/15 07:32:54;;;;;;;;;;;;;;;28.59;36.20;101025.22;5075557;28;1038;-27
2023/09/15 07:35:22;;;;;;;;;;;;;;;28.57;35.94;101025.41;5075972;28;1126;-32
2023/09/15 07:37:48;;;;;;;;;;;;;;;28.71;35.65;101021.00;5071460;28;2027;-29
2023/09/15 07:40:13;;;;;;;;;;;;;;;28.82;36.60;101029.69;5066066;28;1016;-27
2023/09/15 07:42:39;;;;;;;;;;;;;;;28.63;37.07;101025.69;5075533;28;866;-32
2023/09/15 07:45:04;;;;;;;;;;;;;;;28.54;36.54;101025.78;5075517;28;1059;-27
2023/09/15 07:47:30;;;;;;;;;;;;;;;28.62;36.75;101022.13;5077023;28;1051;-30
2023/09/15 07:49:57;;;;;;;;;;;;;;;28.81;36.53;101022.59;5079258;28;1137;-28
2023/09/15 07:52:24;;;;;;;;;;;;;;;28.96;36.03;101019.88;5079076;28;1050;-27
2023/09/15 07:54:50;;;;;;;;;;;;;;;28.73;36.41;101021.66;5078398;28;1025;-29
2023/09/15 07:57:15;;;;;;;;;;;;;;;28.81;36.53;101019.91;5061413;28;1902;-28
2023/09/15 07:59:41;;;;;;;;;;;;;;;28.94;35.90;101016.50;5059066;28;1174;-30
2023/09/15 08:02:07;;;;;;;;;;;;;;;28.58;36.65;101012.69;5072329;28;1115;-29
2023/09/15 08:04:32;;;;;;;;;;;;;;;28.67;36.67;101014.28;5058788;28;1103;-27
2023/09/15 08:06:57;;;;;;;;;;;;;;;28.88;36.53;101012.69;5074367;28;1085;-31
2023/09/15 08:09:23;;;;;;;;;;;;;;;28.96;36.44;101000.91;5069821;28;1061;-32
2023/09/15 08:11:48;;;;;;;;;;;;;;;28.91;36.52;101011.47;5078699;28;1193;-32
2023/09/15 08:14:14;;;;;;;;;;;;;;;28.92;35.45;101005.88;5078379;28;1036;-29
2023/09/15 08:16:39;;;;;;;;;;;;;;;28.70;36.53;101008.50;5078239;28;1114;-30
2023/09/15 08:19:05;;;;;;;;;;;;;;;28.72;35.89;101009.16;5078518;28;1949;-30
2023/09/15 08:21:30;;;;;;;;;;;;;;;28.76;36.05;101006.06;5064715;28;927;-29
2023/09/15 08:23:56;;;;;;;;;;;;;;;28.70;35.72;101011.22;5071955;28;1205;-33
2023/09/15 08:26:22;;;;;;;;;;;;;;;28.19;34.60;101010.03;5058372;28;1221;-33
2023/09/15 08:28:47;;;;;;;;;;;;;;;28.71;35.54;101006.66;5060142;28;1059;-36
2023/09/15 08:31:13;;;;;;;;;;;;;;;28.86;35.00;101006.63;5070403;28;1137;-31
2023/09/15 08:33:38;;;;;;;;;;;;;;;28.76;35.31;101000.66;5058388;28;1055;-32
2023/09/15 08:36:04;;;;;;;;;;;;;;;26.87;32.46;101001.75;5066032;28;1066;-30
2023/09/15 08:38:31;;;;;;;;;;;;;;;27.60;32.75;101003.41;5077964;28;1902;-35
2023/09/15 08:41:10;;;;;;;;;;;;;;;28.09;33.33;101007.56;5078022;28;1075;-32
2023/09/15 08:43:36;;;;;;;;;;;;;;;28.39;33.63;101009.53;5060704;28;1172;-31
2023/09/15 08:46:03;;;;;;;;;;;;;;;28.42;33.89;101019.13;5077886;28;1149;-34
2023/09/15 08:48:29;;;;;;;;;;;;;;;27.97;35.97;101015.31;5077922;28;1070;-26
2023/09/15 08:50:55;;;;;;;;;;;;;;;27.71;36.54;101008.41;5064814;28;1038;-28
2023/09/15 08:53:21;;;;;;;;;;;;;;;27.96;35.80;101013.63;5077918;28;1198;-27
2023/09/15 08:55:47;;;;;;;;;;;;;;;27.73;36.49;101005.53;5078024;28;1206;-25
2023/09/15 08:58:12;;;;;;;;;;;;;;;27.66;36.96;101013.47;5077911;28;1983;-25
2023/09/15 09:00:38;;;;;;;;;;;;;;;27.97;36.10;101009.91;5063410;28;1177;-28
2023/09/15 09:03:04;;;;;;;;;;;;;;;28.57;34.77;101003.75;5047412;28;1047;-33
2023/09/15 09:05:29;;;;;;;;;;;;;;;28.63;34.78;101006.75;5076973;28;1067;-29
2023/09/15 09:07:55;;;;;;;;;;;;;;;28.69;33.76;101001.41;5047173;28;1066;-33
2023/09/15 09:10:21;;;;;;;;;;;;;;;28.55;34.82;101008.50;5052980;28;1047;-29
2023/09/15 09:12:46;;;;;;;;;;;;;;;28.47;34.52;101003.19;5070283;28;1143;-32
2023/09/15 09:15:12;;;;;;;;;;;;;;;28.44;34.67;101009.81;5071485;28;1106;-28
2023/09/15 09:17:40;;;;;;;;;;;;;;;28.46;34.82;101006.94;5069776;28;1898;-32
2023/09/15 09:20:06;;;;;;;;;;;;;;;28.63;34.73;101004.03;5077358;28;1038;-29
2023/09/15 09:22:32;;;;;;;;;;;;;;;28.53;34.95;101004.31;5064397;28;1132;-29
2023/09/15 09:24:58;;;;;;;;;;;;;;;28.56;34.87;101002.06;5070906;28;1062;-30
2023/09/15 09:27:30;;;;;;;;;;;;;;;28.71;34.54;101007.47;5070530;28;1090;-31
2023/09/15 09:29:56;;;;;;;;;;;;;;;28.57;35.10;101002.91;5062918;28;1005;-32
2023/09/15 09:32:21;;;;;;;;;;;;;;;28.61;35.22;101001.53;5077418;28;1066;-29
2023/09/15 09:34:50;;;;;;;;;;;;;;;28.48;35.77;100999.44;5071415;28;1363;-29
2023/09/15 09:37:15;;;;;;;;;;;;;;;28.78;34.98;100998.63;5059238;28;1085;-28
2023/09/15 09:39:41;;;;;;;;;;;;;;;28.75;35.27;100996.25;5058066;28;1969;-27
2023/09/15 09:42:06;;;;;;;;;;;;;;;28.81;35.49;101000.94;5070765;28;1133;-29
2023/09/15 09:44:36;;;;;;;;;;;;;;;28.66;35.83;101004.47;5071056;28;1134;-30
2023/09/15 09:47:01;;;;;;;;;;;;;;;28.81;35.55;101003.66;5039786;28;1130;-29
2023/09/15 09:49:28;;;;;;;;;;;;;;;29.01;35.05;101005.78;5045286;28;1098;-33
2023/09/15 09:51:55;;;;;;;;;;;;;;;28.94;35.16;101002.97;5063801;28;1046;-30
2023/09/15 09:54:24;;;;;;;;;;;;;;;28.84;35.60;101006.78;5064934;28;860;-30
2023/09/15 09:56:49;;;;;;;;;;;;;;;28.87;35.58;101002.88;5059094;28;1055;-29
2023/09/15 09:59:15;;;;;;;;;;;;;;;28.83;35.85;100993.44;5069230;28;1910;-29
2023/09/15 10:01:41;;;;;;;;;;;;;;;28.87;35.94;101002.03;5056867;28;1158;-28
2023/09/15 10:04:07;;;;;;;;;;;;;;;28.63;36.46;101002.16;5069299;28;1026;-29
2023/09/15 10:06:36;;;;;;;;;;;;;;;28.85;35.96;101002.22;5065327;28;1112;-29
2023/09/15 10:09:05;;;;;;;;;;;;;;;28.86;36.22;101003.94;5076181;28;1062;-29
2023/09/15 10:11:31;;;;;;;;;;;;;;;28.68;36.60;100999.72;5062122;28;1083;-28
2023/09/15 10:13:57;;;;;;;;;;;;;;;28.89;35.97;101008.09;5076634;28;1050;-28
2023/09/15 10:16:22;;;;;;;;;;;;;;;28.66;36.50;100999.06;5074769;28;967;-29
2023/09/15 10:18:48;;;;;;;;;;;;;;;28.63;36.71;100999.44;5058939;28;1906;-30
2023/09/15 10:21:13;;;;;;;;;;;;;;;28.83;36.76;101005.13;5057962;28;1035;-30
2023/09/15 10:23:39;;;;;;;;;;;;;;;28.88;35.91;101009.16;5070060;28;1134;-35
2023/09/15 10:26:05;;;;;;;;;;;;;;;28.76;36.50;101008.78;5060220;28;1071;-29
2023/09/15 10:28:30;;;;;;;;;;;;;;;28.69;36.48;101006.84;5049554;28;1544;-28
2023/09/15 10:30:55;;;;;;;;;;;;;;;28.80;36.23;101010.91;5047569;28;1194;-31
2023/09/15 10:33:22;;;;;;;;;;;;;;;28.79;36.47;101006.53;5062627;28;1031;-29
2023/09/15 10:35:48;;;;;;;;;;;;;;;28.72;36.40;101005.59;5069516;28;1139;-29
2023/09/15 10:38:24;;;;;;;;;;;;;;;28.61;37.25;100998.81;5076066;28;1909;-31
2023/09/15 10:40:49;;;;;;;;;;;;;;;28.82;35.96;100999.91;5062441;28;1086;-29
2023/09/15 10:43:17;;;;;;;;;;;;;;;28.68;36.53;100997.00;5075636;28;901;-32
2023/09/15 10:45:52;;;;;;;;;;;;;;;28.91;35.92;100989.81;5059576;28;999;-31
2023/09/15 10:48:18;;;;;;;;;;;;;;;28.70;36.35;100988.72;5056528;28;1178;-29
2023/09/15 10:50:44;;;;;;;;;;;;;;;28.35;36.86;100990.13;5073241;28;1122;-30
2023/09/15 10:53:10;;;;;;;;;;;;;;;28.29;35.94;100987.28;5076069;28;1039;-29
2023/09/15 10:55:35;;;;;;;;;;;;;;;28.67;35.81;100980.97;5068624;28;1078;-32
2023/09/15 10:58:04;;;;;;;;;;;;;;;28.40;36.78;100986.84;5056352;28;1918;-31
2023/09/15 11:00:30;;;;;;;;;;;;;;;28.38;36.22;100979.97;5060513;28;1083;-30
2023/09/15 11:02:56;;;;;;;;;;;;;;;28.67;36.06;100976.41;5075634;28;1063;-31
2023/09/15 11:05:21;;;;;;;;;;;;;;;28.79;35.91;100974.06;5062689;28;1062;-31
2023/09/15 11:07:47;;;;;;;;;;;;;;;28.69;35.82;100971.66;5046998;28;932;-32
2023/09/15 11:10:12;;;;;;;;;;;;;;;28.48;36.62;100972.38;5052687;28;1080;-33
2023/09/15 11:12:37;;;;;;;;;;;;;;;28.49;36.68;100971.38;5062209;28;1127;-37
2023/09/15 11:15:04;;;;;;;;;;;;;;;28.69;36.28;100965.38;5062728;28;1039;-29
2023/09/15 11:17:30;;;;;;;;;;;;;;;28.58;35.99;100970.25;5062406;28;1910;-31
2023/09/15 11:19:57;;;;;;;;;;;;;;;28.32;36.85;100958.00;5068374;28;905;-28
2023/09/15 11:22:23;;;;;;;;;;;;;;;28.46;36.19;100956.34;5057895;28;1139;-31
2023/09/15 11:24:51;;;;;;;;;;;;;;;28.52;36.46;100954.75;5079784;28;1139;-28
2023/09/15 11:27:17;;;;;;;;;;;;;;;28.63;36.28;100949.91;5066684;28;1149;-32
2023/09/15 11:29:42;;;;;;;;;;;;;;;28.39;36.92;100952.72;5079297;28;1090;-30
2023/09/15 11:32:08;;;;;;;;;;;;;;;28.47;36.77;100952.63;5064645;28;894;-30
2023/09/15 11:34:33;;;;;;;;;;;;;;;28.48;36.80;100953.44;5059536;28;1218;-29
2023/09/15 11:36:59;;;;;;;;;;;;;;;28.42;36.74;100952.34;5059595;28;1099;-31
2023/09/15 11:39:25;;;;;;;;;;;;;;;28.42;36.94;100949.63;5076455;28;1902;-28
2023/09/15 11:41:53;;;;;;;;;;;;;;;28.41;36.74;100956.06;5079145;28;1212;-30
2023/09/15 11:44:24;;;;;;;;;;;;;;;28.72;37.10;100951.47;5078837;28;1094;-29
2023/09/15 11:46:49;;;;;;;;;;;;;;;28.77;36.52;100948.19;5079072;28;1217;-31
2023/09/15 11:49:16;;;;;;;;;;;;;;;28.75;36.35;100942.13;5079264;28;1119;-31
2023/09/15 11:51:42;;;;;;;;;;;;;;;29.03;36.10;100944.16;5067589;28;1098;-31
2023/09/15 11:54:08;;;;;;;;;;;;;;;28.87;36.48;100954.16;5058772;28;1000;-31
2023/09/15 11:56:33;;;;;;;;;;;;;;;28.41;37.33;100947.94;5077713;28;914;-34
2023/09/15 11:58:59;;;;;;;;;;;;;;;28.75;35.37;100958.34;5078865;28;1902;-32
2023/09/15 12:01:24;;;;;;;;;;;;;;;28.13;34.46;100945.84;5061147;28;1235;-29
2023/09/15 12:03:50;;;;;;;;;;;;;;;28.34;34.09;100941.63;5073729;28;1050;-31
2023/09/15 12:06:18;;;;;;;;;;;;;;;28.40;35.47;100938.16;5041085;28;1180;-35
2023/09/15 12:08:44;;;;;;;;;;;;;;;28.29;36.30;100939.44;5060219;28;901;-30
2023/09/15 12:11:10;;;;;;;;;;;;;;;28.56;35.45;100937.09;5078609;28;1083;-29
2023/09/15 12:13:36;;;;;;;;;;;;;;;28.38;35.51;100929.38;5073312;28;1106;-33
2023/09/15 12:16:02;;;;;;;;;;;;;;;28.53;35.93;100931.25;5058691;28;1113;-28
2023/09/15 12:18:27;;;;;;;;;;;;;;;28.46;35.99;100931.97;5077032;28;1922;-30
2023/09/15 12:20:53;;;;;;;;;;;;;;;28.67;35.99;100916.84;5078749;28;992;-31
2023/09/15 12:23:19;;;;;;;;;;;;;;;29.03;35.17;100917.06;5073181;28;1003;-29
2023/09/15 12:25:44;;;;;;;;;;;;;;;28.91;35.20;100914.00;5070286;28;1047;-28
2023/09/15 12:28:11;;;;;;;;;;;;;;;28.75;35.84;100902.34;5073769;28;1130;-29
2023/09/15 12:30:43;;;;;;;;;;;;;;;29.18;35.53;100908.88;5069976;28;1048;-29
2023/09/15 12:33:08;;;;;;;;;;;;;;;29.01;35.54;100911.81;5065057;28;1078;-31
2023/09/15 12:35:40;;;;;;;;;;;;;;;29.03;35.79;100908.94;5077411;28;1205;-34
2023/09/15 12:38:05;;;;;;;;;;;;;;;29.05;35.16;100909.56;5078209;28;1914;-29
2023/09/15 12:40:32;;;;;;;;;;;;;;;28.87;36.22;100905.41;5071871;28;896;-30
2023/09/15 12:42:57;;;;;;;;;;;;;;;28.90;35.73;100901.47;5066940;28;1016;-32